sensor_id;sensor_type;location;lat;lon;timestamp;P1;durP1;ratioP1;P2;durP2;ratioP2
53261;SDS011;39658;51.090;-1.786;2023-09-08T00:00:09;16.67;;;10.93;;
53261;SDS011;39658;51.090;-1.786;2023-09-08T00:02:38;15.20;;;10.32;;
53261;SDS011;39658;51.090;-1.786;2023-09-08T00:05:04;15.70;;;10.93;;
53261;SDS011;39658;51.090;-1.786;2023-09-08T00:07:32;18.77;;;9.80;;
53261;SDS011;39658;51.090;-1.786;2023-09-08T00:09:58;18.33;;;9.55;;
53261;SDS011;39658;51.090;-1.786;2023-09-08T00:12:25;18.40;;;11.32;;
53261;SDS011;39658;51.090;-1.786;2023-09-08T00:14:52;14.13;;;10.07;;
53261;SDS011;39658;51.090;-1.786;2023-09-08T00:17:19;15.05;;;9.13;;
53261;SDS011;39658;51.090;-1.786;2023-09-08T00:19:47;15.43;;;9.30;;
53261;SDS011;39658;51.090;-1.786;2023-09-08T00:22:14;14.65;;;8.95;;
53261;SDS011;39658;51.090;-1.786;2023-09-08T00:24:41;16.65;;;9.75;;
53261;SDS011;39658;51.090;-1.786;2023-09-08T00:27:08;15.32;;;9.18;;
53261;SDS011;39658;51.090;-1.786;2023-09-08T00:29:35;21.00;;;9.25;;
53261;SDS011;39658;51.090;-1.786;2023-09-08T00:32:02;17.38;;;10.20;;
53261;SDS011;39658;51.090;-1.786;2023-09-08T00:34:29;15.38;;;9.20;;
53261;SDS011;39658;51.090;-1.786;2023-09-08T00:36:57;15.10;;;9.48;;
53261;SDS011;39658;51.090;-1.786;2023-09-08T00:39:29;16.95;;;9.60;;
53261;SDS011;39658;51.090;-1.786;2023-09-08T00:41:56;18.25;;;10.32;;
53261;SDS011;39658;51.090;-1.786;2023-09-08T00:44:23;15.80;;;11.02;;
53261;SDS011;39658;51.090;-1.786;2023-09-08T00:46:50;19.10;;;10.57;;
53261;SDS011;39658;51.090;-1.786;2023-09-08T00:49:17;18.98;;;11.02;;
53261;SDS011;39658;51.090;-1.786;2023-09-08T00:51:43;19.65;;;9.75;;
53261;SDS011;39658;51.090;-1.786;2023-09-08T00:54:12;17.20;;;9.48;;
53261;SDS011;39658;51.090;-1.786;2023-09-08T00:56:39;14.43;;;9.10;;
53261;SDS011;39658;51.090;-1.786;2023-09-08T00:59:06;13.50;;;8.70;;
53261;SDS011;39658;51.090;-1.786;2023-09-08T01:01:34;17.65;;;8.98;;
53261;SDS011;39658;51.090;-1.786;2023-09-08T01:04:01;14.65;;;8.00;;
53261;SDS011;39658;51.090;-1.786;2023-09-08T01:06:28;17.17;;;9.75;;
53261;SDS011;39658;51.090;-1.786;2023-09-08T01:08:57;15.65;;;9.52;;
53261;SDS011;39658;51.090;-1.786;2023-09-08T01:11:26;16.63;;;9.02;;
53261;SDS011;39658;51.090;-1.786;2023-09-08T01:16:21;13.35;;;7.97;;
53261;SDS011;39658;51.090;-1.786;2023-09-08T01:18:48;16.55;;;8.45;;
53261;SDS011;39658;51.090;-1.786;2023-09-08T01:21:24;16.50;;;10.48;;
53261;SDS011;39658;51.090;-1.786;2023-09-08T01:24:14;19.85;;;11.43;;
53261;SDS011;39658;51.090;-1.786;2023-09-08T01:26:56;18.65;;;11.45;;
53261;SDS011;39658;51.090;-1.786;2023-09-08T01:29:23;16.13;;;10.13;;
53261;SDS011;39658;51.090;-1.786;2023-09-08T01:31:51;19.17;;;9.73;;
53261;SDS011;39658;51.090;-1.786;2023-09-08T01:34:18;15.85;;;9.77;;
53261;SDS011;39658;51.090;-1.786;2023-09-08T01:36:46;16.15;;;9.93;;
53261;SDS011;39658;51.090;-1.786;2023-09-08T01:39:12;19.95;;;10.43;;
53261;SDS011;39658;51.090;-1.786;2023-09-08T01:41:39;18.83;;;10.10;;
53261;SDS011;39658;51.090;-1.786;2023-09-08T01:44:07;18.33;;;10.80;;
53261;SDS011;39658;51.090;-1.786;2023-09-08T01:46:36;21.50;;;10.95;;
53261;SDS011;39658;51.090;-1.786;2023-09-08T01:49:03;20.23;;;12.07;;
53261;SDS011;39658;51.090;-1.786;2023-09-08T01:51:30;18.02;;;11.35;;
53261;SDS011;39658;51.090;-1.786;2023-09-08T01:53:57;17.83;;;10.30;;
53261;SDS011;39658;51.090;-1.786;2023-09-08T01:56:24;17.05;;;10.48;;
53261;SDS011;39658;51.090;-1.786;2023-09-08T01:58:51;17.25;;;10.73;;
53261;SDS011;39658;51.090;-1.786;2023-09-08T02:01:19;18.67;;;10.68;;
53261;SDS011;39658;51.090;-1.786;2023-09-08T02:03:46;19.10;;;10.60;;
53261;SDS011;39658;51.090;-1.786;2023-09-08T02:06:13;21.90;;;10.27;;
53261;SDS011;39658;51.090;-1.786;2023-09-08T02:08:39;17.42;;;11.07;;
53261;SDS011;39658;51.090;-1.786;2023-09-08T02:11:06;17.17;;;10.00;;
53261;SDS011;39658;51.090;-1.786;2023-09-08T02:13:33;14.95;;;9.38;;
53261;SDS011;39658;51.090;-1.786;2023-09-08T02:16:00;16.23;;;11.05;;
53261;SDS011;39658;51.090;-1.786;2023-09-08T02:18:28;22.10;;;11.63;;
53261;SDS011;39658;51.090;-1.786;2023-09-08T02:20:54;20.70;;;12.23;;
53261;SDS011;39658;51.090;-1.786;2023-09-08T02:23:21;19.63;;;11.02;;
53261;SDS011;39658;51.090;-1.786;2023-09-08T02:25:48;18.55;;;10.57;;
53261;SDS011;39658;51.090;-1.786;2023-09-08T02:28:15;21.77;;;12.20;;
53261;SDS011;39658;51.090;-1.786;2023-09-08T02:30:41;21.48;;;12.43;;
53261;SDS011;39658;51.090;-1.786;2023-09-08T02:33:08;24.80;;;12.13;;
53261;SDS011;39658;51.090;-1.786;2023-09-08T02:35:37;23.40;;;12.55;;
53261;SDS011;39658;51.090;-1.786;2023-09-08T02:38:04;22.50;;;13.68;;
53261;SDS011;39658;51.090;-1.786;2023-09-08T02:40:32;25.65;;;12.65;;
53261;SDS011;39658;51.090;-1.786;2023-09-08T02:42:59;23.75;;;12.98;;
53261;SDS011;39658;51.090;-1.786;2023-09-08T02:45:26;19.63;;;13.05;;
53261;SDS011;39658;51.090;-1.786;2023-09-08T02:47:53;21.27;;;12.18;;
53261;SDS011;39658;51.090;-1.786;2023-09-08T02:50:19;25.25;;;13.45;;
53261;SDS011;39658;51.090;-1.786;2023-09-08T02:52:49;25.08;;;14.88;;
53261;SDS011;39658;51.090;-1.786;2023-09-08T02:55:16;25.25;;;14.30;;
53261;SDS011;39658;51.090;-1.786;2023-09-08T02:57:43;30.55;;;14.35;;
53261;SDS011;39658;51.090;-1.786;2023-09-08T03:00:10;28.27;;;14.13;;
53261;SDS011;39658;51.090;-1.786;2023-09-08T03:02:37;23.35;;;12.95;;
53261;SDS011;39658;51.090;-1.786;2023-09-08T03:05:04;22.33;;;12.30;;
53261;SDS011;39658;51.090;-1.786;2023-09-08T03:07:31;22.25;;;11.93;;
53261;SDS011;39658;51.090;-1.786;2023-09-08T03:10:00;24.20;;;13.63;;
53261;SDS011;39658;51.090;-1.786;2023-09-08T03:12:27;21.42;;;11.93;;
53261;SDS011;39658;51.090;-1.786;2023-09-08T03:14:54;25.90;;;11.95;;
53261;SDS011;39658;51.090;-1.786;2023-09-08T03:17:21;21.70;;;12.10;;
53261;SDS011;39658;51.090;-1.786;2023-09-08T03:19:48;19.63;;;11.98;;
53261;SDS011;39658;51.090;-1.786;2023-09-08T03:22:14;21.17;;;11.98;;
53261;SDS011;39658;51.090;-1.786;2023-09-08T03:24:41;20.25;;;10.90;;
53261;SDS011;39658;51.090;-1.786;2023-09-08T03:27:09;20.42;;;10.93;;
53261;SDS011;39658;51.090;-1.786;2023-09-08T03:29:36;19.70;;;11.23;;
53261;SDS011;39658;51.090;-1.786;2023-09-08T03:32:03;19.95;;;10.85;;
53261;SDS011;39658;51.090;-1.786;2023-09-08T03:34:30;19.65;;;10.60;;
53261;SDS011;39658;51.090;-1.786;2023-09-08T03:36:57;18.00;;;11.00;;
53261;SDS011;39658;51.090;-1.786;2023-09-08T03:39:24;20.95;;;10.65;;
53261;SDS011;39658;51.090;-1.786;2023-09-08T03:41:51;21.42;;;12.20;;
53261;SDS011;39658;51.090;-1.786;2023-09-08T03:44:19;20.77;;;10.93;;
53261;SDS011;39658;51.090;-1.786;2023-09-08T03:46:45;18.02;;;10.43;;
53261;SDS011;39658;51.090;-1.786;2023-09-08T03:49:12;17.77;;;9.80;;
53261;SDS011;39658;51.090;-1.786;2023-09-08T03:51:39;18.00;;;9.38;;
53261;SDS011;39658;51.090;-1.786;2023-09-08T03:54:06;17.70;;;9.70;;
53261;SDS011;39658;51.090;-1.786;2023-09-08T03:56:33;18.48;;;10.82;;
53261;SDS011;39658;51.090;-1.786;2023-09-08T03:58:59;16.15;;;9.55;;
53261;SDS011;39658;51.090;-1.786;2023-09-08T04:01:28;21.23;;;11.82;;
53261;SDS011;39658;51.090;-1.786;2023-09-08T04:03:54;20.45;;;11.52;;
53261;SDS011;39658;51.090;-1.786;2023-09-08T04:06:21;20.00;;;11.70;;
53261;SDS011;39658;51.090;-1.786;2023-09-08T04:08:49;19.42;;;11.25;;
53261;SDS011;39658;51.090;-1.786;2023-09-08T04:11:16;18.42;;;10.93;;
53261;SDS011;39658;51.090;-1.786;2023-09-08T04:13:43;20.30;;;10.80;;
53261;SDS011;39658;51.090;-1.786;2023-09-08T04:16:09;23.58;;;11.75;;
53261;SDS011;39658;51.090;-1.786;2023-09-08T04:18:37;17.95;;;10.90;;
53261;SDS011;39658;51.090;-1.786;2023-09-08T04:21:05;23.30;;;12.05;;
53261;SDS011;39658;51.090;-1.786;2023-09-08T04:23:32;15.85;;;10.65;;
53261;SDS011;39658;51.090;-1.786;2023-09-08T04:25:59;17.77;;;11.07;;
53261;SDS011;39658;51.090;-1.786;2023-09-08T04:28:26;16.85;;;10.80;;
53261;SDS011;39658;51.090;-1.786;2023-09-08T04:30:54;20.10;;;11.30;;
53261;SDS011;39658;51.090;-1.786;2023-09-08T04:33:22;19.60;;;11.85;;
53261;SDS011;39658;51.090;-1.786;2023-09-08T04:35:51;18.30;;;11.38;;
53261;SDS011;39658;51.090;-1.786;2023-09-08T04:38:17;20.77;;;11.90;;
53261;SDS011;39658;51.090;-1.786;2023-09-08T04:40:44;19.92;;;11.45;;
53261;SDS011;39658;51.090;-1.786;2023-09-08T04:43:11;16.60;;;10.70;;
53261;SDS011;39658;51.090;-1.786;2023-09-08T04:45:38;18.17;;;11.43;;
53261;SDS011;39658;51.090;-1.786;2023-09-08T04:48:05;21.40;;;11.07;;
53261;SDS011;39658;51.090;-1.786;2023-09-08T04:50:32;23.23;;;11.52;;
53261;SDS011;39658;51.090;-1.786;2023-09-08T04:53:01;20.15;;;11.57;;
53261;SDS011;39658;51.090;-1.786;2023-09-08T04:55:28;17.85;;;11.52;;
53261;SDS011;39658;51.090;-1.786;2023-09-08T04:57:55;23.92;;;11.57;;
53261;SDS011;39658;51.090;-1.786;2023-09-08T05:00:22;20.77;;;11.80;;
53261;SDS011;39658;51.090;-1.786;2023-09-08T05:02:48;19.88;;;12.20;;
53261;SDS011;39658;51.090;-1.786;2023-09-08T05:05:15;23.73;;;11.00;;
53261;SDS011;39658;51.090;-1.786;2023-09-08T05:07:42;17.73;;;11.65;;
53261;SDS011;39658;51.090;-1.786;2023-09-08T05:10:12;20.67;;;11.45;;
53261;SDS011;39658;51.090;-1.786;2023-09-08T05:12:38;22.23;;;12.90;;
53261;SDS011;39658;51.090;-1.786;2023-09-08T05:15:05;21.92;;;13.02;;
53261;SDS011;39658;51.090;-1.786;2023-09-08T05:17:39;19.00;;;10.45;;
53261;SDS011;39658;51.090;-1.786;2023-09-08T05:20:07;18.73;;;10.55;;
53261;SDS011;39658;51.090;-1.786;2023-09-08T05:22:34;16.52;;;9.82;;
53261;SDS011;39658;51.090;-1.786;2023-09-08T05:25:01;19.52;;;11.60;;
53261;SDS011;39658;51.090;-1.786;2023-09-08T05:27:29;21.38;;;12.10;;
53261;SDS011;39658;51.090;-1.786;2023-09-08T05:29:57;20.35;;;12.32;;
53261;SDS011;39658;51.090;-1.786;2023-09-08T05:32:23;24.23;;;13.13;;
53261;SDS011;39658;51.090;-1.786;2023-09-08T05:34:50;23.58;;;13.05;;
53261;SDS011;39658;51.090;-1.786;2023-09-08T05:37:17;22.92;;;13.30;;
53261;SDS011;39658;51.090;-1.786;2023-09-08T05:39:44;23.63;;;14.65;;
53261;SDS011;39658;51.090;-1.786;2023-09-08T05:42:10;25.98;;;14.60;;
53261;SDS011;39658;51.090;-1.786;2023-09-08T05:44:39;27.17;;;15.15;;
53261;SDS011;39658;51.090;-1.786;2023-09-08T05:47:05;25.05;;;14.82;;
53261;SDS011;39658;51.090;-1.786;2023-09-08T05:49:32;25.25;;;15.18;;
53261;SDS011;39658;51.090;-1.786;2023-09-08T05:51:59;25.88;;;14.77;;
53261;SDS011;39658;51.090;-1.786;2023-09-08T05:54:26;26.75;;;14.80;;
53261;SDS011;39658;51.090;-1.786;2023-09-08T05:56:54;22.10;;;13.80;;
53261;SDS011;39658;51.090;-1.786;2023-09-08T05:59:21;24.20;;;14.05;;
53261;SDS011;39658;51.090;-1.786;2023-09-08T06:01:49;22.50;;;12.32;;
53261;SDS011;39658;51.090;-1.786;2023-09-08T06:04:16;22.98;;;13.30;;
53261;SDS011;39658;51.090;-1.786;2023-09-08T06:06:42;21.05;;;13.10;;
53261;SDS011;39658;51.090;-1.786;2023-09-08T06:09:09;21.73;;;13.88;;
53261;SDS011;39658;51.090;-1.786;2023-09-08T06:11:37;21.77;;;12.95;;
53261;SDS011;39658;51.090;-1.786;2023-09-08T06:14:04;21.10;;;13.23;;
53261;SDS011;39658;51.090;-1.786;2023-09-08T06:16:30;22.73;;;13.45;;
53261;SDS011;39658;51.090;-1.786;2023-09-08T06:18:59;25.98;;;14.00;;
53261;SDS011;39658;51.090;-1.786;2023-09-08T06:21:28;21.55;;;13.55;;
53261;SDS011;39658;51.090;-1.786;2023-09-08T06:23:55;25.77;;;13.20;;
53261;SDS011;39658;51.090;-1.786;2023-09-08T06:26:22;29.08;;;15.60;;
53261;SDS011;39658;51.090;-1.786;2023-09-08T06:28:49;28.30;;;16.25;;
53261;SDS011;39658;51.090;-1.786;2023-09-08T06:31:16;27.30;;;16.00;;
53261;SDS011;39658;51.090;-1.786;2023-09-08T06:33:42;22.23;;;14.90;;
53261;SDS011;39658;51.090;-1.786;2023-09-08T06:36:11;28.15;;;16.67;;
53261;SDS011;39658;51.090;-1.786;2023-09-08T06:38:37;26.33;;;14.48;;
53261;SDS011;39658;51.090;-1.786;2023-09-08T06:41:08;24.80;;;15.50;;
53261;SDS011;39658;51.090;-1.786;2023-09-08T06:43:36;24.65;;;14.35;;
53261;SDS011;39658;51.090;-1.786;2023-09-08T06:46:02;28.27;;;14.57;;
53261;SDS011;39658;51.090;-1.786;2023-09-08T06:48:29;29.25;;;14.80;;
53261;SDS011;39658;51.090;-1.786;2023-09-08T06:50:56;23.15;;;14.50;;
53261;SDS011;39658;51.090;-1.786;2023-09-08T06:53:25;26.85;;;15.98;;
53261;SDS011;39658;51.090;-1.786;2023-09-08T06:55:52;25.35;;;15.00;;
53261;SDS011;39658;51.090;-1.786;2023-09-08T06:58:19;26.67;;;15.80;;
53261;SDS011;39658;51.090;-1.786;2023-09-08T07:00:45;27.50;;;16.88;;
53261;SDS011;39658;51.090;-1.786;2023-09-08T07:03:14;32.85;;;16.85;;
53261;SDS011;39658;51.090;-1.786;2023-09-08T07:05:41;28.27;;;14.90;;
53261;SDS011;39658;51.090;-1.786;2023-09-08T07:08:08;30.33;;;15.20;;
53261;SDS011;39658;51.090;-1.786;2023-09-08T07:10:36;27.25;;;15.30;;
53261;SDS011;39658;51.090;-1.786;2023-09-08T07:13:03;26.25;;;14.57;;
53261;SDS011;39658;51.090;-1.786;2023-09-08T07:15:30;17.70;;;10.52;;
53261;SDS011;39658;51.090;-1.786;2023-09-08T07:17:57;16.58;;;10.15;;
53261;SDS011;39658;51.090;-1.786;2023-09-08T07:20:23;13.65;;;8.73;;
53261;SDS011;39658;51.090;-1.786;2023-09-08T07:22:50;14.68;;;9.18;;
53261;SDS011;39658;51.090;-1.786;2023-09-08T07:25:17;16.15;;;9.43;;
53261;SDS011;39658;51.090;-1.786;2023-09-08T07:27:46;19.98;;;10.50;;
53261;SDS011;39658;51.090;-1.786;2023-09-08T07:30:13;18.65;;;10.35;;
53261;SDS011;39658;51.090;-1.786;2023-09-08T07:32:40;19.88;;;10.10;;
53261;SDS011;39658;51.090;-1.786;2023-09-08T07:35:07;18.45;;;9.15;;
53261;SDS011;39658;51.090;-1.786;2023-09-08T07:37:39;16.00;;;9.93;;
53261;SDS011;39658;51.090;-1.786;2023-09-08T07:40:06;18.35;;;10.05;;
53261;SDS011;39658;51.090;-1.786;2023-09-08T07:42:34;17.30;;;10.57;;
53261;SDS011;39658;51.090;-1.786;2023-09-08T07:45:03;17.40;;;10.73;;
53261;SDS011;39658;51.090;-1.786;2023-09-08T07:47:30;17.00;;;10.23;;
53261;SDS011;39658;51.090;-1.786;2023-09-08T07:52:42;20.80;;;11.55;;
53261;SDS011;39658;51.090;-1.786;2023-09-08T07:55:09;22.85;;;10.93;;
53261;SDS011;39658;51.090;-1.786;2023-09-08T07:57:36;26.73;;;12.45;;
53261;SDS011;39658;51.090;-1.786;2023-09-08T08:00:05;25.50;;;12.75;;
53261;SDS011;39658;51.090;-1.786;2023-09-08T08:02:35;34.85;;;12.90;;
53261;SDS011;39658;51.090;-1.786;2023-09-08T08:05:03;22.63;;;13.07;;
53261;SDS011;39658;51.090;-1.786;2023-09-08T08:07:31;21.05;;;11.43;;
53261;SDS011;39658;51.090;-1.786;2023-09-08T08:09:57;23.90;;;10.60;;
53261;SDS011;39658;51.090;-1.786;2023-09-08T08:12:24;31.70;;;10.15;;
53261;SDS011;39658;51.090;-1.786;2023-09-08T08:14:52;16.75;;;9.55;;
53261;SDS011;39658;51.090;-1.786;2023-09-08T08:17:20;17.45;;;9.32;;
53261;SDS011;39658;51.090;-1.786;2023-09-08T08:19:47;17.40;;;9.45;;
53261;SDS011;39658;51.090;-1.786;2023-09-08T08:22:13;15.88;;;9.40;;
53261;SDS011;39658;51.090;-1.786;2023-09-08T08:24:40;17.45;;;8.85;;
53261;SDS011;39658;51.090;-1.786;2023-09-08T08:27:07;18.27;;;8.63;;
53261;SDS011;39658;51.090;-1.786;2023-09-08T08:29:34;17.60;;;8.77;;
53261;SDS011;39658;51.090;-1.786;2023-09-08T08:32:01;15.68;;;8.60;;
53261;SDS011;39658;51.090;-1.786;2023-09-08T08:34:29;16.73;;;9.35;;
53261;SDS011;39658;51.090;-1.786;2023-09-08T08:36:56;27.30;;;8.02;;
53261;SDS011;39658;51.090;-1.786;2023-09-08T08:39:23;13.18;;;9.23;;
53261;SDS011;39658;51.090;-1.786;2023-09-08T08:41:50;14.90;;;8.02;;
53261;SDS011;39658;51.090;-1.786;2023-09-08T08:44:17;13.65;;;8.15;;
53261;SDS011;39658;51.090;-1.786;2023-09-08T08:46:45;21.67;;;7.57;;
53261;SDS011;39658;51.090;-1.786;2023-09-08T08:49:13;14.43;;;7.75;;
53261;SDS011;39658;51.090;-1.786;2023-09-08T08:51:43;12.70;;;7.35;;
53261;SDS011;39658;51.090;-1.786;2023-09-08T08:54:11;10.85;;;7.57;;
53261;SDS011;39658;51.090;-1.786;2023-09-08T08:56:39;14.60;;;7.07;;
53261;SDS011;39658;51.090;-1.786;2023-09-08T08:59:07;15.00;;;7.88;;
53261;SDS011;39658;51.090;-1.786;2023-09-08T09:01:35;15.75;;;6.82;;
53261;SDS011;39658;51.090;-1.786;2023-09-08T09:04:04;11.35;;;6.55;;
53261;SDS011;39658;51.090;-1.786;2023-09-08T09:06:31;11.85;;;6.63;;
53261;SDS011;39658;51.090;-1.786;2023-09-08T09:09:00;10.88;;;6.25;;
53261;SDS011;39658;51.090;-1.786;2023-09-08T09:11:28;10.93;;;6.53;;
53261;SDS011;39658;51.090;-1.786;2023-09-08T09:13:56;11.90;;;6.13;;
53261;SDS011;39658;51.090;-1.786;2023-09-08T09:16:22;14.52;;;6.40;;
53261;SDS011;39658;51.090;-1.786;2023-09-08T09:18:56;11.82;;;6.47;;
53261;SDS011;39658;51.090;-1.786;2023-09-08T09:21:23;12.27;;;6.28;;
53261;SDS011;39658;51.090;-1.786;2023-09-08T09:23:51;10.68;;;6.15;;
53261;SDS011;39658;51.090;-1.786;2023-09-08T09:26:25;10.50;;;5.85;;
53261;SDS011;39658;51.090;-1.786;2023-09-08T09:28:52;12.40;;;6.30;;
53261;SDS011;39658;51.090;-1.786;2023-09-08T09:31:23;13.77;;;5.65;;
53261;SDS011;39658;51.090;-1.786;2023-09-08T09:34:00;12.10;;;5.80;;
53261;SDS011;39658;51.090;-1.786;2023-09-08T09:36:29;11.32;;;5.47;;
53261;SDS011;39658;51.090;-1.786;2023-09-08T09:38:57;13.43;;;6.20;;
53261;SDS011;39658;51.090;-1.786;2023-09-08T09:41:28;11.07;;;5.75;;
53261;SDS011;39658;51.090;-1.786;2023-09-08T09:43:56;9.55;;;5.07;;
53261;SDS011;39658;51.090;-1.786;2023-09-08T09:46:23;9.32;;;5.15;;
53261;SDS011;39658;51.090;-1.786;2023-09-08T09:48:50;12.15;;;5.25;;
53261;SDS011;39658;51.090;-1.786;2023-09-08T09:51:19;8.70;;;4.63;;
53261;SDS011;39658;51.090;-1.786;2023-09-08T09:53:46;11.68;;;4.57;;
53261;SDS011;39658;51.090;-1.786;2023-09-08T09:56:14;8.73;;;4.38;;
53261;SDS011;39658;51.090;-1.786;2023-09-08T09:58:44;7.65;;;4.13;;
53261;SDS011;39658;51.090;-1.786;2023-09-08T10:01:11;7.35;;;3.65;;
53261;SDS011;39658;51.090;-1.786;2023-09-08T10:03:38;6.72;;;3.58;;
53261;SDS011;39658;51.090;-1.786;2023-09-08T10:06:05;6.45;;;3.13;;
53261;SDS011;39658;51.090;-1.786;2023-09-08T10:08:34;5.82;;;3.10;;
53261;SDS011;39658;51.090;-1.786;2023-09-08T10:13:31;8.15;;;3.80;;
53261;SDS011;39658;51.090;-1.786;2023-09-08T10:16:05;6.55;;;3.40;;
53261;SDS011;39658;51.090;-1.786;2023-09-08T10:18:34;6.75;;;3.60;;
53261;SDS011;39658;51.090;-1.786;2023-09-08T10:21:03;8.43;;;3.63;;
53261;SDS011;39658;51.090;-1.786;2023-09-08T10:23:33;7.32;;;3.20;;
53261;SDS011;39658;51.090;-1.786;2023-09-08T10:26:05;8.75;;;3.63;;
53261;SDS011;39658;51.090;-1.786;2023-09-08T10:28:35;7.70;;;3.92;;
53261;SDS011;39658;51.090;-1.786;2023-09-08T10:31:03;7.80;;;3.90;;
53261;SDS011;39658;51.090;-1.786;2023-09-08T10:33:33;8.43;;;3.85;;
53261;SDS011;39658;51.090;-1.786;2023-09-08T10:36:01;7.60;;;3.88;;
53261;SDS011;39658;51.090;-1.786;2023-09-08T10:38:31;10.15;;;3.58;;
53261;SDS011;39658;51.090;-1.786;2023-09-08T10:48:49;7.75;;;3.95;;
53261;SDS011;39658;51.090;-1.786;2023-09-08T10:51:18;8.70;;;4.05;;
53261;SDS011;39658;51.090;-1.786;2023-09-08T10:53:47;8.60;;;4.65;;
53261;SDS011;39658;51.090;-1.786;2023-09-08T10:56:14;9.63;;;3.95;;
53261;SDS011;39658;51.090;-1.786;2023-09-08T10:58:41;6.68;;;3.45;;
53261;SDS011;39658;51.090;-1.786;2023-09-08T11:01:12;11.40;;;4.22;;
53261;SDS011;39658;51.090;-1.786;2023-09-08T11:03:46;7.07;;;3.60;;
53261;SDS011;39658;51.090;-1.786;2023-09-08T11:06:15;8.27;;;3.55;;
53261;SDS011;39658;51.090;-1.786;2023-09-08T11:08:44;7.00;;;3.80;;
53261;SDS011;39658;51.090;-1.786;2023-09-08T11:11:12;7.05;;;3.67;;
53261;SDS011;39658;51.090;-1.786;2023-09-08T11:13:39;8.13;;;4.03;;
53261;SDS011;39658;51.090;-1.786;2023-09-08T11:16:07;6.95;;;3.47;;
53261;SDS011;39658;51.090;-1.786;2023-09-08T11:18:34;7.93;;;4.00;;
53261;SDS011;39658;51.090;-1.786;2023-09-08T11:21:03;12.23;;;5.05;;
53261;SDS011;39658;51.090;-1.786;2023-09-08T11:23:33;12.90;;;4.15;;
53261;SDS011;39658;51.090;-1.786;2023-09-08T11:26:00;9.23;;;3.58;;
53261;SDS011;39658;51.090;-1.786;2023-09-08T11:28:27;9.88;;;4.00;;
53261;SDS011;39658;51.090;-1.786;2023-09-08T11:30:54;7.00;;;4.03;;
53261;SDS011;39658;51.090;-1.786;2023-09-08T11:33:22;8.48;;;3.67;;
53261;SDS011;39658;51.090;-1.786;2023-09-08T11:35:50;7.18;;;3.65;;
53261;SDS011;39658;51.090;-1.786;2023-09-08T11:38:18;7.43;;;3.83;;
53261;SDS011;39658;51.090;-1.786;2023-09-08T11:40:50;8.43;;;3.78;;
53261;SDS011;39658;51.090;-1.786;2023-09-08T11:43:18;5.95;;;3.25;;
53261;SDS011;39658;51.090;-1.786;2023-09-08T11:45:45;6.53;;;3.35;;
53261;SDS011;39658;51.090;-1.786;2023-09-08T11:48:13;7.97;;;3.58;;
53261;SDS011;39658;51.090;-1.786;2023-09-08T11:50:41;7.38;;;3.60;;
53261;SDS011;39658;51.090;-1.786;2023-09-08T11:53:08;9.05;;;3.67;;
53261;SDS011;39658;51.090;-1.786;2023-09-08T11:55:37;7.45;;;3.85;;
53261;SDS011;39658;51.090;-1.786;2023-09-08T11:58:03;8.55;;;3.20;;
53261;SDS011;39658;51.090;-1.786;2023-09-08T12:00:31;6.32;;;3.55;;
53261;SDS011;39658;51.090;-1.786;2023-09-08T12:03:09;6.60;;;3.47;;
53261;SDS011;39658;51.090;-1.786;2023-09-08T12:05:36;6.32;;;3.20;;
53261;SDS011;39658;51.090;-1.786;2023-09-08T12:08:04;7.47;;;3.75;;
53261;SDS011;39658;51.090;-1.786;2023-09-08T12:10:38;6.32;;;3.63;;
53261;SDS011;39658;51.090;-1.786;2023-09-08T12:13:06;6.03;;;3.35;;
53261;SDS011;39658;51.090;-1.786;2023-09-08T12:15:34;10.30;;;4.03;;
53261;SDS011;39658;51.090;-1.786;2023-09-08T12:18:03;6.32;;;3.58;;
53261;SDS011;39658;51.090;-1.786;2023-09-08T12:20:33;6.43;;;3.65;;
53261;SDS011;39658;51.090;-1.786;2023-09-08T12:23:01;9.18;;;4.32;;
53261;SDS011;39658;51.090;-1.786;2023-09-08T12:25:30;8.73;;;3.47;;
53261;SDS011;39658;51.090;-1.786;2023-09-08T12:27:59;7.00;;;3.38;;
53261;SDS011;39658;51.090;-1.786;2023-09-08T12:30:26;6.80;;;3.60;;
53261;SDS011;39658;51.090;-1.786;2023-09-08T12:32:58;8.32;;;3.60;;
53261;SDS011;39658;51.090;-1.786;2023-09-08T12:35:26;6.40;;;3.03;;
53261;SDS011;39658;51.090;-1.786;2023-09-08T12:38:02;12.73;;;3.45;;
53261;SDS011;39658;51.090;-1.786;2023-09-08T12:40:31;5.68;;;2.83;;
53261;SDS011;39658;51.090;-1.786;2023-09-08T12:43:01;7.60;;;2.83;;
53261;SDS011;39658;51.090;-1.786;2023-09-08T12:45:29;8.30;;;3.13;;
53261;SDS011;39658;51.090;-1.786;2023-09-08T12:47:57;5.32;;;3.10;;
53261;SDS011;39658;51.090;-1.786;2023-09-08T12:50:26;6.05;;;3.10;;
53261;SDS011;39658;51.090;-1.786;2023-09-08T12:52:53;8.35;;;3.25;;
53261;SDS011;39658;51.090;-1.786;2023-09-08T12:55:20;6.68;;;3.47;;
53261;SDS011;39658;51.090;-1.786;2023-09-08T12:57:47;8.38;;;3.83;;
53261;SDS011;39658;51.090;-1.786;2023-09-08T13:00:16;7.70;;;3.60;;
53261;SDS011;39658;51.090;-1.786;2023-09-08T13:02:43;8.45;;;3.40;;
53261;SDS011;39658;51.090;-1.786;2023-09-08T13:05:10;6.07;;;3.40;;
53261;SDS011;39658;51.090;-1.786;2023-09-08T13:07:37;5.60;;;3.10;;
53261;SDS011;39658;51.090;-1.786;2023-09-08T13:10:04;5.60;;;3.03;;
53261;SDS011;39658;51.090;-1.786;2023-09-08T13:12:32;6.20;;;2.78;;
53261;SDS011;39658;51.090;-1.786;2023-09-08T13:14:59;5.70;;;2.88;;
53261;SDS011;39658;51.090;-1.786;2023-09-08T13:17:27;8.68;;;3.05;;
53261;SDS011;39658;51.090;-1.786;2023-09-08T13:19:54;6.05;;;3.08;;
53261;SDS011;39658;51.090;-1.786;2023-09-08T13:22:21;6.50;;;3.13;;
53261;SDS011;39658;51.090;-1.786;2023-09-08T13:24:47;7.55;;;3.65;;
53261;SDS011;39658;51.090;-1.786;2023-09-08T13:27:14;7.22;;;2.88;;
53261;SDS011;39658;51.090;-1.786;2023-09-08T13:29:42;6.53;;;2.97;;
53261;SDS011;39658;51.090;-1.786;2023-09-08T13:32:09;6.18;;;3.00;;
53261;SDS011;39658;51.090;-1.786;2023-09-08T13:34:37;5.20;;;2.97;;
53261;SDS011;39658;51.090;-1.786;2023-09-08T13:37:04;7.10;;;3.47;;
53261;SDS011;39658;51.090;-1.786;2023-09-08T13:39:31;8.13;;;3.53;;
53261;SDS011;39658;51.090;-1.786;2023-09-08T13:41:59;10.45;;;3.85;;
53261;SDS011;39658;51.090;-1.786;2023-09-08T13:44:26;10.57;;;4.00;;
53261;SDS011;39658;51.090;-1.786;2023-09-08T13:46:53;7.60;;;3.60;;
53261;SDS011;39658;51.090;-1.786;2023-09-08T13:49:21;7.13;;;3.90;;
53261;SDS011;39658;51.090;-1.786;2023-09-08T13:51:50;7.65;;;3.60;;
53261;SDS011;39658;51.090;-1.786;2023-09-08T13:54:18;8.73;;;3.53;;
53261;SDS011;39658;51.090;-1.786;2023-09-08T13:56:45;8.50;;;2.97;;
53261;SDS011;39658;51.090;-1.786;2023-09-08T13:59:25;6.78;;;3.50;;
53261;SDS011;39658;51.090;-1.786;2023-09-08T14:01:52;8.48;;;4.00;;
53261;SDS011;39658;51.090;-1.786;2023-09-08T14:04:20;7.70;;;3.60;;
53261;SDS011;39658;51.090;-1.786;2023-09-08T14:06:46;6.32;;;3.50;;
53261;SDS011;39658;51.090;-1.786;2023-09-08T14:09:15;7.03;;;3.40;;
53261;SDS011;39658;51.090;-1.786;2023-09-08T14:11:41;6.68;;;3.15;;
53261;SDS011;39658;51.090;-1.786;2023-09-08T14:14:08;8.52;;;3.97;;
53261;SDS011;39658;51.090;-1.786;2023-09-08T14:16:35;7.22;;;3.47;;
53261;SDS011;39658;51.090;-1.786;2023-09-08T14:19:02;7.47;;;3.40;;
53261;SDS011;39658;51.090;-1.786;2023-09-08T14:21:29;9.60;;;3.47;;
53261;SDS011;39658;51.090;-1.786;2023-09-08T14:23:57;7.05;;;3.78;;
53261;SDS011;39658;51.090;-1.786;2023-09-08T14:26:25;7.20;;;4.13;;
53261;SDS011;39658;51.090;-1.786;2023-09-08T14:28:52;7.32;;;3.83;;
53261;SDS011;39658;51.090;-1.786;2023-09-08T14:31:19;8.45;;;3.80;;
53261;SDS011;39658;51.090;-1.786;2023-09-08T14:33:46;8.18;;;3.90;;
53261;SDS011;39658;51.090;-1.786;2023-09-08T14:36:16;7.38;;;3.70;;